createdAt,value
2022-08-20T00:00:48.215Z,20.16
2022-08-20T00:01:48.251Z,20.13
2022-08-20T00:02:48.188Z,20.10
2022-08-20T00:03:53.331Z,20.09
2022-08-20T00:04:49.147Z,20.06
2022-08-20T00:05:48.158Z,20.06
2022-08-20T00:06:48.125Z,20.06
2022-08-20T00:07:48.129Z,20.09
2022-08-20T00:08:48.139Z,20.09
2022-08-20T00:09:48.087Z,20.12
2022-08-20T00:10:49.753Z,20.12
2022-08-20T00:11:49.057Z,20.10
2022-08-20T00:12:48.048Z,20.10
2022-08-20T00:13:48.051Z,20.09
2022-08-20T00:14:48.020Z,20.10
2022-08-20T00:15:48.029Z,20.12
2022-08-20T00:16:48.003Z,20.12
2022-08-20T00:17:47.979Z,20.13
2022-08-20T00:18:47.984Z,20.15
2022-08-20T00:19:48.060Z,20.13
2022-08-20T00:20:47.940Z,20.15
2022-08-20T00:21:47.943Z,20.13
2022-08-20T00:22:47.911Z,20.13
2022-08-20T00:23:47.915Z,20.13
2022-08-20T00:24:47.897Z,20.12
2022-08-20T00:25:47.992Z,20.09
2022-08-20T00:26:51.979Z,20.12
2022-08-20T00:27:47.865Z,20.13
2022-08-20T00:28:47.851Z,20.16
2022-08-20T00:29:47.826Z,20.20
2022-08-20T00:30:47.821Z,20.20
2022-08-20T00:31:47.795Z,20.18
2022-08-20T00:32:47.775Z,20.15
2022-08-20T00:33:47.781Z,20.13
2022-08-20T00:34:47.747Z,20.12
2022-08-20T00:35:47.760Z,20.10
2022-08-20T00:36:47.852Z,20.10
2022-08-20T00:37:47.716Z,20.10
2022-08-20T00:38:47.711Z,20.12
2022-08-20T00:39:47.724Z,20.09
2022-08-20T00:40:47.677Z,20.09
2022-08-20T00:41:47.682Z,20.09
2022-08-20T00:42:47.702Z,20.09
2022-08-20T00:43:47.639Z,20.09
2022-08-20T00:44:47.619Z,20.09
2022-08-20T00:45:47.632Z,20.09
2022-08-20T00:46:47.598Z,20.06
2022-08-20T00:47:51.651Z,20.03
2022-08-20T00:48:47.606Z,20.02
2022-08-20T00:49:47.562Z,20.00
2022-08-20T00:50:47.556Z,19.98
2022-08-20T00:51:47.531Z,19.98
2022-08-20T00:52:49.796Z,19.97
2022-08-20T00:53:47.525Z,19.98
2022-08-20T00:54:47.623Z,20.00
2022-08-20T00:55:47.497Z,20.02
2022-08-20T00:56:47.479Z,19.98
2022-08-20T00:57:59.148Z,19.98
2022-08-20T00:58:48.436Z,19.95
2022-08-20T00:59:47.452Z,19.93
2022-08-20T01:00:47.429Z,19.91
2022-08-20T01:01:55.229Z,19.90
2022-08-20T01:02:48.399Z,19.90
2022-08-20T01:03:47.377Z,19.90
2022-08-20T01:04:47.359Z,19.90
2022-08-20T01:05:47.369Z,19.88
2022-08-20T01:06:47.337Z,19.88
2022-08-20T01:07:47.340Z,19.88
2022-08-20T01:08:47.322Z,19.87
2022-08-20T01:09:57.896Z,19.84
2022-08-20T01:10:48.294Z,19.83
2022-08-20T01:11:47.271Z,19.79
2022-08-20T01:12:47.251Z,19.79
2022-08-20T01:13:47.264Z,19.78
2022-08-20T01:14:47.231Z,19.79
2022-08-20T01:15:47.264Z,19.79
2022-08-20T01:16:47.217Z,19.78
2022-08-20T01:17:47.193Z,19.80
2022-08-20T01:18:47.199Z,19.79
2022-08-20T01:19:47.170Z,19.80
2022-08-20T01:20:47.153Z,19.84
2022-08-20T01:21:49.886Z,19.83
2022-08-20T01:22:47.131Z,19.84
2022-08-20T01:23:47.128Z,19.86
2022-08-20T01:24:47.111Z,19.87
2022-08-20T01:25:47.086Z,19.88
2022-08-20T01:26:47.087Z,19.90
2022-08-20T01:27:47.090Z,19.93
2022-08-20T01:28:48.047Z,19.93
2022-08-20T01:29:47.051Z,19.91
2022-08-20T01:30:47.032Z,19.90
2022-08-20T01:31:47.008Z,19.87
2022-08-20T01:32:46.989Z,19.83
2022-08-20T01:33:47.002Z,19.79
2022-08-20T01:34:46.959Z,19.76
2022-08-20T01:35:46.973Z,19.73
2022-08-20T01:36:46.954Z,19.72
2022-08-20T01:37:46.930Z,19.70
2022-08-20T01:38:54.315Z,19.69
2022-08-20T01:39:47.961Z,19.65
2022-08-20T01:40:46.892Z,19.63
2022-08-20T01:41:46.895Z,19.60
2022-08-20T01:42:58.674Z,19.57
2022-08-20T01:43:47.897Z,19.53
2022-08-20T01:44:46.848Z,19.51
2022-08-20T01:45:46.823Z,19.47
2022-08-20T01:46:46.813Z,19.43
2022-08-20T01:47:46.818Z,19.43
2022-08-20T01:48:46.798Z,19.43
2022-08-20T01:49:46.804Z,19.47
2022-08-20T01:50:46.769Z,19.50
2022-08-20T01:51:46.746Z,19.51
2022-08-20T01:52:46.734Z,19.51
2022-08-20T01:53:46.741Z,19.54
2022-08-20T01:54:46.706Z,19.54
2022-08-20T01:55:46.752Z,19.53
2022-08-20T01:56:46.691Z,19.53
2022-08-20T01:57:46.668Z,19.53
2022-08-20T01:58:46.670Z,19.51
2022-08-20T01:59:46.648Z,19.50
2022-08-20T02:00:46.629Z,19.50
2022-08-20T02:01:47.212Z,19.48
2022-08-20T02:02:46.613Z,19.48
2022-08-20T02:03:46.591Z,19.50
2022-08-20T02:04:46.572Z,19.48
2022-08-20T02:05:46.576Z,19.47
2022-08-20T02:06:56.253Z,19.47
2022-08-20T02:07:47.556Z,19.40
2022-08-20T02:08:46.538Z,19.42
2022-08-20T02:09:46.512Z,19.40
2022-08-20T02:10:46.509Z,19.40
2022-08-20T02:11:46.483Z,19.42
2022-08-20T02:12:46.473Z,19.43
2022-08-20T02:13:46.478Z,19.43
2022-08-20T02:14:46.447Z,19.46
2022-08-20T02:15:46.449Z,19.50
2022-08-20T02:16:52.392Z,19.53
2022-08-20T02:17:47.515Z,19.54
2022-08-20T02:18:46.400Z,19.54
2022-08-20T02:19:46.377Z,19.57
2022-08-20T02:20:46.366Z,19.55
2022-08-20T02:21:46.374Z,19.53
2022-08-20T02:22:50.419Z,19.50
2022-08-20T02:23:46.349Z,19.48
2022-08-20T02:24:46.322Z,19.43
2022-08-20T02:25:46.300Z,19.43
2022-08-20T02:26:46.294Z,19.43
2022-08-20T02:27:46.336Z,19.43
2022-08-20T02:28:46.259Z,19.42
2022-08-20T02:29:46.264Z,19.40
2022-08-20T02:30:46.230Z,19.39
2022-08-20T02:32:24.928Z,19.39
2022-08-20T02:32:47.217Z,19.38
2022-08-20T02:34:14.800Z,19.38
2022-08-20T02:34:47.180Z,19.39
2022-08-20T02:35:46.185Z,19.39
2022-08-20T02:36:46.167Z,19.40
2022-08-20T02:37:46.143Z,19.40
2022-08-20T02:38:46.249Z,19.39
2022-08-20T02:39:46.147Z,19.38
2022-08-20T02:40:46.095Z,19.35
2022-08-20T02:41:46.106Z,19.33
2022-08-20T02:42:46.074Z,19.32
2022-08-20T02:43:46.078Z,19.31
2022-08-20T02:44:46.090Z,19.32
2022-08-20T02:45:46.037Z,19.32
2022-08-20T02:46:46.031Z,19.33
2022-08-20T02:47:46.007Z,19.33
2022-08-20T02:48:45.995Z,19.33
2022-08-20T02:49:46.000Z,19.32
2022-08-20T02:50:45.983Z,19.32
2022-08-20T02:51:45.960Z,19.31
2022-08-20T02:52:51.618Z,19.31
2022-08-20T02:53:46.944Z,19.31
2022-08-20T02:54:45.910Z,19.29
2022-08-20T02:55:45.953Z,19.32
2022-08-20T02:56:45.903Z,19.31
2022-08-20T02:57:45.878Z,19.31
2022-08-20T02:58:46.875Z,19.31
2022-08-20T02:59:45.853Z,19.31
2022-08-20T03:00:45.832Z,19.31
2022-08-20T03:01:45.877Z,19.32
2022-08-20T03:02:45.803Z,19.35
2022-08-20T03:03:45.815Z,19.36
2022-08-20T03:04:45.803Z,19.39
2022-08-20T03:05:45.781Z,19.42
2022-08-20T03:06:45.755Z,19.43
2022-08-20T03:07:45.888Z,19.48
2022-08-20T03:08:45.742Z,19.48
2022-08-20T03:09:45.715Z,19.48
2022-08-20T03:10:45.710Z,19.43
2022-08-20T03:11:45.694Z,19.43
2022-08-20T03:12:45.676Z,19.42
2022-08-20T03:13:45.681Z,19.46
2022-08-20T03:14:45.647Z,19.42
2022-08-20T03:15:45.651Z,19.39
2022-08-20T03:16:45.632Z,19.38
2022-08-20T03:17:45.608Z,19.35
2022-08-20T03:18:45.641Z,19.33
2022-08-20T03:19:45.588Z,19.32
2022-08-20T03:20:45.974Z,19.28
2022-08-20T03:21:45.575Z,19.23
2022-08-20T03:22:45.564Z,19.15
2022-08-20T03:23:45.530Z,19.08
2022-08-20T03:24:45.551Z,19.02
2022-08-20T03:25:45.515Z,18.98
2022-08-20T03:26:45.493Z,18.98
2022-08-20T03:27:45.486Z,18.97
2022-08-20T03:28:45.484Z,18.94
2022-08-20T03:29:45.444Z,18.92
2022-08-20T03:30:45.457Z,18.91
2022-08-20T03:31:45.424Z,18.91
2022-08-20T03:32:45.414Z,18.91
2022-08-20T03:33:53.011Z,18.90
2022-08-20T03:34:46.385Z,18.90
2022-08-20T03:35:45.409Z,18.91
2022-08-20T03:36:45.378Z,18.91
2022-08-20T03:37:45.755Z,18.91
2022-08-20T03:38:45.337Z,18.92
2022-08-20T03:39:45.360Z,18.92
2022-08-20T03:40:45.322Z,18.92
2022-08-20T03:41:45.318Z,18.92
2022-08-20T03:42:45.302Z,18.95
2022-08-20T03:43:45.268Z,18.94
2022-08-20T03:44:45.261Z,18.97
2022-08-20T03:45:45.252Z,18.99
2022-08-20T03:46:45.231Z,19.01
2022-08-20T03:47:45.248Z,18.99
2022-08-20T03:48:45.215Z,18.98
2022-08-20T03:49:45.181Z,19.02
2022-08-20T03:50:45.194Z,19.05
2022-08-20T03:51:57.984Z,19.08
2022-08-20T03:52:46.172Z,19.10
2022-08-20T03:53:45.149Z,19.10
2022-08-20T03:54:45.136Z,19.05
2022-08-20T03:55:45.389Z,18.99
2022-08-20T03:56:46.101Z,18.98
2022-08-20T03:57:45.088Z,18.95
2022-08-20T03:58:45.072Z,18.94
2022-08-20T03:59:45.059Z,18.91
2022-08-20T04:00:45.056Z,18.90
2022-08-20T04:01:46.728Z,18.87
2022-08-20T04:02:45.028Z,18.86
2022-08-20T04:03:45.001Z,18.86
2022-08-20T04:04:44.987Z,18.87
2022-08-20T04:05:44.981Z,18.86
2022-08-20T04:06:44.967Z,18.86
2022-08-20T04:07:44.952Z,18.84
2022-08-20T04:08:44.951Z,18.87
2022-08-20T04:09:44.918Z,18.86
2022-08-20T04:10:44.910Z,18.87
2022-08-20T04:11:44.903Z,18.86
2022-08-20T04:12:52.750Z,18.86
2022-08-20T04:13:45.861Z,18.84
2022-08-20T04:14:44.864Z,18.86
2022-08-20T04:15:44.832Z,18.86
2022-08-20T04:16:44.823Z,18.83
2022-08-20T04:17:44.823Z,18.84
2022-08-20T04:19:01.730Z,18.83
2022-08-20T04:19:45.795Z,18.84
2022-08-20T04:20:44.786Z,18.84
2022-08-20T04:21:44.754Z,18.86
2022-08-20T04:22:44.768Z,18.87
2022-08-20T04:23:45.765Z,18.90
2022-08-20T04:24:44.716Z,18.86
2022-08-20T04:25:44.717Z,18.90
2022-08-20T04:26:44.693Z,18.91
2022-08-20T04:27:44.687Z,18.90
2022-08-20T04:28:44.679Z,18.91
2022-08-20T04:29:44.675Z,18.90
2022-08-20T04:30:51.628Z,18.92
2022-08-20T04:31:45.619Z,18.94
2022-08-20T04:32:44.610Z,18.95
2022-08-20T04:33:44.610Z,18.94
2022-08-20T04:34:44.581Z,18.94
2022-08-20T04:35:44.580Z,18.95
2022-08-20T04:36:44.572Z,18.97
2022-08-20T04:37:44.530Z,18.95
2022-08-20T04:38:49.793Z,18.92
2022-08-20T04:39:45.565Z,18.91
2022-08-20T04:40:44.620Z,18.87
2022-08-20T04:41:44.496Z,18.84
2022-08-20T04:42:44.485Z,18.86
2022-08-20T04:43:44.452Z,18.86
2022-08-20T04:44:44.452Z,18.86
2022-08-20T04:45:44.449Z,18.87
2022-08-20T04:46:44.429Z,18.91
2022-08-20T04:47:44.417Z,18.91
2022-08-20T04:48:49.180Z,18.92
2022-08-20T04:49:45.374Z,18.97
2022-08-20T04:50:44.380Z,18.92
2022-08-20T04:51:44.355Z,18.90
2022-08-20T04:52:44.336Z,18.90
2022-08-20T04:53:44.330Z,18.91
2022-08-20T04:54:45.316Z,18.90
2022-08-20T04:55:44.310Z,18.86
2022-08-20T04:56:44.321Z,18.86
2022-08-20T04:57:44.267Z,18.87
2022-08-20T04:58:44.257Z,18.86
2022-08-20T04:59:44.260Z,18.87
2022-08-20T05:00:44.251Z,18.87
2022-08-20T05:01:44.220Z,18.86
2022-08-20T05:02:44.251Z,18.87
2022-08-20T05:03:44.190Z,18.90
2022-08-20T05:04:44.180Z,18.92
2022-08-20T05:06:19.844Z,18.94
2022-08-20T05:06:44.151Z,18.94
2022-08-20T05:07:44.131Z,18.98
2022-08-20T05:08:44.164Z,18.98
2022-08-20T05:09:44.332Z,18.97
2022-08-20T05:10:44.113Z,18.98
2022-08-20T05:11:44.094Z,18.98
2022-08-20T05:12:44.071Z,18.94
2022-08-20T05:13:45.083Z,18.94
2022-08-20T05:14:44.057Z,18.92
2022-08-20T05:15:44.038Z,18.90
2022-08-20T05:16:44.016Z,18.86
2022-08-20T05:17:44.008Z,18.86
2022-08-20T05:18:43.992Z,18.87
2022-08-20T05:19:43.975Z,18.86
2022-08-20T05:20:43.978Z,18.86
2022-08-20T05:21:43.946Z,18.86
2022-08-20T05:22:43.952Z,18.90
2022-08-20T05:23:43.931Z,18.87
2022-08-20T05:24:43.946Z,18.84
2022-08-20T05:25:43.904Z,18.84
2022-08-20T05:26:43.878Z,18.86
2022-08-20T05:27:47.745Z,18.84
2022-08-20T05:28:57.822Z,18.82
2022-08-20T05:29:44.869Z,18.80
2022-08-20T05:30:43.843Z,18.77
2022-08-20T05:31:43.823Z,18.76
2022-08-20T05:32:44.660Z,18.79
2022-08-20T05:33:43.802Z,18.77
2022-08-20T05:34:43.771Z,18.82
2022-08-20T05:35:43.892Z,18.86
2022-08-20T05:36:43.764Z,18.84
2022-08-20T05:37:43.722Z,18.84
2022-08-20T05:38:43.736Z,18.86
2022-08-20T05:39:44.737Z,18.87
2022-08-20T05:40:43.693Z,18.84
2022-08-20T05:41:43.688Z,18.83
2022-08-20T05:42:43.664Z,18.86
2022-08-20T05:43:43.645Z,18.86
2022-08-20T05:44:43.657Z,18.87
2022-08-20T05:45:43.639Z,18.91
2022-08-20T05:46:43.750Z,18.94
2022-08-20T05:47:43.596Z,18.97
2022-08-20T05:48:43.599Z,18.98
2022-08-20T05:49:43.566Z,19.05
2022-08-20T05:50:43.571Z,18.99
2022-08-20T05:51:43.553Z,18.99
2022-08-20T05:52:43.568Z,19.01
2022-08-20T05:53:43.531Z,19.06
2022-08-20T05:54:43.499Z,19.06
2022-08-20T05:55:43.488Z,19.01
2022-08-20T05:56:43.494Z,19.01
2022-08-20T05:57:43.461Z,19.08
2022-08-20T05:58:43.493Z,19.06
2022-08-20T05:59:43.445Z,19.05
2022-08-20T06:00:43.420Z,19.02
2022-08-20T06:01:43.418Z,18.98
2022-08-20T06:02:43.413Z,19.05
2022-08-20T06:03:43.395Z,19.11
2022-08-20T06:04:43.373Z,19.10
2022-08-20T06:05:43.365Z,19.06
2022-08-20T06:06:45.834Z,19.11
2022-08-20T06:07:43.323Z,19.11
2022-08-20T06:08:43.337Z,19.11
2022-08-20T06:09:44.532Z,19.13
2022-08-20T06:10:43.374Z,19.14
2022-08-20T06:11:43.287Z,19.08
2022-08-20T06:12:43.265Z,19.02
2022-08-20T06:13:43.259Z,19.08
2022-08-20T06:14:43.271Z,19.01
2022-08-20T06:15:43.215Z,18.98
2022-08-20T06:16:57.169Z,18.95
2022-08-20T06:17:44.209Z,18.94
2022-08-20T06:18:43.187Z,18.97
2022-08-20T06:19:44.452Z,19.01
2022-08-20T06:20:43.308Z,19.06
2022-08-20T06:21:43.138Z,19.10
2022-08-20T06:22:43.151Z,19.15
2022-08-20T06:23:54.381Z,19.08
2022-08-20T06:24:44.100Z,18.97
2022-08-20T06:25:43.103Z,18.94
2022-08-20T06:26:43.121Z,18.95
2022-08-20T06:27:43.061Z,18.97
2022-08-20T06:28:43.074Z,18.95
2022-08-20T06:29:43.032Z,18.95
2022-08-20T06:30:43.036Z,18.92
2022-08-20T06:31:43.023Z,18.92
2022-08-20T06:32:43.003Z,18.98
2022-08-20T06:33:42.998Z,19.02
2022-08-20T06:34:50.555Z,18.95
2022-08-20T06:35:43.953Z,18.90
2022-08-20T06:36:42.958Z,18.94
2022-08-20T06:37:42.935Z,18.95
2022-08-20T06:38:42.939Z,19.02
2022-08-20T06:39:42.941Z,19.05
2022-08-20T06:40:42.896Z,19.05
2022-08-20T06:41:42.892Z,18.99
2022-08-20T06:42:47.793Z,18.99
2022-08-20T06:43:43.847Z,18.92
2022-08-20T06:44:42.859Z,18.92
2022-08-20T06:45:42.818Z,18.91
2022-08-20T06:46:42.833Z,18.87
2022-08-20T06:47:42.812Z,18.86
2022-08-20T06:48:42.909Z,18.86
2022-08-20T06:49:42.769Z,18.86
2022-08-20T06:50:47.613Z,18.90
2022-08-20T06:51:43.753Z,18.87
2022-08-20T06:52:52.681Z,18.91
2022-08-20T06:53:43.754Z,18.90
2022-08-20T06:54:42.708Z,18.91
2022-08-20T06:55:42.692Z,18.87
2022-08-20T06:56:43.697Z,18.84
2022-08-20T06:57:42.663Z,18.86
2022-08-20T06:58:42.671Z,18.92
2022-08-20T06:59:42.654Z,18.94
2022-08-20T07:00:42.681Z,18.97
2022-08-20T07:01:42.640Z,18.99
2022-08-20T07:02:42.605Z,19.01
2022-08-20T07:03:54.386Z,19.01
2022-08-20T07:04:43.618Z,18.94
2022-08-20T07:05:42.577Z,18.97
2022-08-20T07:06:42.546Z,18.99
2022-08-20T07:07:42.533Z,18.98
2022-08-20T07:08:42.538Z,18.95
2022-08-20T07:09:42.505Z,19.01
2022-08-20T07:10:42.541Z,19.01
2022-08-20T07:11:42.491Z,19.01
2022-08-20T07:12:42.475Z,19.08
2022-08-20T07:13:42.463Z,19.15
2022-08-20T07:14:42.748Z,19.18
2022-08-20T07:15:42.431Z,19.18
2022-08-20T07:16:42.433Z,19.17
2022-08-20T07:17:42.401Z,19.20
2022-08-20T07:18:42.405Z,19.23
2022-08-20T07:19:42.384Z,19.25
2022-08-20T07:20:42.361Z,19.28
2022-08-20T07:21:42.383Z,19.32
2022-08-20T07:22:42.355Z,19.33
2022-08-20T07:23:42.335Z,19.33
2022-08-20T07:24:45.957Z,19.32
2022-08-20T07:25:43.307Z,19.31
2022-08-20T07:26:42.282Z,19.32
2022-08-20T07:27:42.294Z,19.35
2022-08-20T07:28:42.268Z,19.38
2022-08-20T07:29:42.237Z,19.40
2022-08-20T07:30:55.966Z,19.40
2022-08-20T07:31:43.230Z,19.47
2022-08-20T07:32:45.288Z,19.54
2022-08-20T07:33:44.594Z,19.65
2022-08-20T07:34:43.643Z,19.70
2022-08-20T07:35:42.165Z,19.72
2022-08-20T07:36:42.170Z,19.70
2022-08-20T07:37:42.153Z,19.69
2022-08-20T07:38:42.119Z,19.66
2022-08-20T07:39:42.168Z,19.66
2022-08-20T07:40:42.111Z,19.68
2022-08-20T07:41:42.081Z,19.70
2022-08-20T07:42:42.080Z,19.76
2022-08-20T07:43:42.082Z,19.80
2022-08-20T07:44:42.161Z,19.83
2022-08-20T07:45:42.044Z,19.79
2022-08-20T07:46:43.011Z,19.84
2022-08-20T07:47:42.002Z,19.87
2022-08-20T07:48:42.037Z,19.84
2022-08-20T07:49:41.972Z,19.79
2022-08-20T07:50:43.115Z,19.80
2022-08-20T07:51:41.966Z,19.88
2022-08-20T07:52:41.933Z,19.93
2022-08-20T07:53:41.923Z,19.94
2022-08-20T07:54:41.928Z,19.95
2022-08-20T07:55:41.938Z,19.97
2022-08-20T07:56:42.887Z,20.00
2022-08-20T07:57:41.892Z,20.10
2022-08-20T07:58:41.856Z,20.20
2022-08-20T07:59:41.846Z,20.23
2022-08-20T08:00:41.903Z,20.39
2022-08-20T08:01:41.837Z,20.53
2022-08-20T08:02:41.823Z,20.53
2022-08-20T08:03:49.723Z,20.49
2022-08-20T08:04:42.787Z,20.42
2022-08-20T08:05:41.781Z,20.53
2022-08-20T08:06:41.769Z,20.56
2022-08-20T08:07:43.099Z,20.49
2022-08-20T08:08:41.742Z,20.50
2022-08-20T08:09:41.738Z,20.53
2022-08-20T08:10:41.700Z,20.62
2022-08-20T08:11:46.488Z,20.71
2022-08-20T08:12:42.685Z,20.87
2022-08-20T08:13:41.662Z,20.93
2022-08-20T08:14:41.663Z,21.04
2022-08-20T08:15:41.655Z,21.06
2022-08-20T08:16:41.622Z,21.08
2022-08-20T08:17:41.626Z,20.91
2022-08-20T08:18:41.596Z,20.93
2022-08-20T08:19:41.591Z,20.93
2022-08-20T08:20:46.680Z,20.83
2022-08-20T08:21:42.563Z,20.76
2022-08-20T08:22:41.586Z,20.74
2022-08-20T08:23:41.552Z,20.64
2022-08-20T08:24:41.517Z,20.58
2022-08-20T08:25:42.508Z,20.56
2022-08-20T08:26:41.500Z,20.59
2022-08-20T08:27:41.491Z,20.64
2022-08-20T08:28:41.499Z,20.71
2022-08-20T08:29:41.469Z,20.80
2022-08-20T08:30:41.435Z,20.84
2022-08-20T08:31:41.428Z,20.72
2022-08-20T08:32:41.421Z,20.65
2022-08-20T08:33:41.401Z,20.62
2022-08-20T08:34:41.393Z,20.61
2022-08-20T08:35:41.413Z,20.64
2022-08-20T08:36:41.352Z,20.76
2022-08-20T08:37:41.365Z,20.83
2022-08-20T08:38:41.331Z,20.74
2022-08-20T08:39:41.390Z,20.76
2022-08-20T08:40:41.315Z,20.77
2022-08-20T08:41:41.292Z,20.69
2022-08-20T08:42:43.210Z,20.66
2022-08-20T08:43:41.280Z,20.62
2022-08-20T08:44:41.244Z,20.54
2022-08-20T08:45:41.286Z,20.50
2022-08-20T08:46:41.215Z,20.51
2022-08-20T08:47:41.213Z,20.51
2022-08-20T08:48:41.211Z,20.51
2022-08-20T08:49:41.193Z,20.51
2022-08-20T08:50:53.191Z,20.61
2022-08-20T08:51:42.285Z,20.65
2022-08-20T08:52:41.137Z,20.74
2022-08-20T08:53:41.144Z,20.74
2022-08-20T08:54:41.107Z,20.77
2022-08-20T08:55:41.106Z,20.86
2022-08-20T08:56:41.106Z,20.99
2022-08-20T08:57:41.093Z,21.08
2022-08-20T08:58:41.059Z,21.19
2022-08-20T08:59:52.458Z,21.16
2022-08-20T09:00:42.046Z,21.14
2022-08-20T09:01:54.504Z,21.16
2022-08-20T09:02:42.069Z,21.24
2022-08-20T09:03:41.008Z,21.20
2022-08-20T09:04:40.972Z,21.21
2022-08-20T09:05:40.985Z,21.23
2022-08-20T09:06:40.944Z,21.42
2022-08-20T09:07:40.943Z,21.64
2022-08-20T09:08:40.941Z,21.97
2022-08-20T09:09:40.917Z,22.14
2022-08-20T09:10:40.914Z,22.06
2022-08-20T09:11:40.907Z,22.19
2022-08-20T09:12:43.389Z,22.25
2022-08-20T09:13:41.856Z,22.28
2022-08-20T09:14:40.849Z,22.39
2022-08-20T09:15:40.909Z,22.34
2022-08-20T09:16:52.438Z,22.46
2022-08-20T09:17:41.932Z,22.54
2022-08-20T09:18:40.787Z,22.74
2022-08-20T09:19:40.783Z,23.02
2022-08-20T09:20:40.783Z,23.17
2022-08-20T09:21:40.759Z,23.09
2022-08-20T09:22:40.750Z,22.86
2022-08-20T09:23:40.770Z,22.74
2022-08-20T09:24:40.709Z,23.23
2022-08-20T09:25:40.722Z,23.01
2022-08-20T09:26:40.688Z,23.20
2022-08-20T09:27:41.445Z,23.42
2022-08-20T09:28:40.678Z,23.82
2022-08-20T09:29:40.694Z,24.22
2022-08-20T09:30:40.631Z,24.17
2022-08-20T09:31:40.648Z,24.23
2022-08-20T09:32:40.619Z,24.52
2022-08-20T09:33:40.594Z,24.23
2022-08-20T09:34:40.588Z,24.29
2022-08-20T09:35:40.599Z,24.24
2022-08-20T09:36:40.562Z,24.32
2022-08-20T09:37:40.558Z,24.41
2022-08-20T09:38:40.525Z,24.50
2022-08-20T09:39:40.556Z,24.63
2022-08-20T09:40:40.555Z,24.82
2022-08-20T09:41:40.495Z,24.42
2022-08-20T09:42:41.825Z,24.79
2022-08-20T09:43:40.481Z,25.35
2022-08-20T09:44:40.448Z,25.16
2022-08-20T09:45:40.452Z,24.90
2022-08-20T09:46:40.448Z,24.71
2022-08-20T09:47:48.725Z,24.12
2022-08-20T09:48:41.410Z,23.85
2022-08-20T09:49:40.393Z,23.62
2022-08-20T09:50:40.384Z,23.68
2022-08-20T09:51:40.384Z,24.10
2022-08-20T09:52:40.899Z,24.27
2022-08-20T09:53:40.356Z,24.98
2022-08-20T09:54:46.475Z,25.15
2022-08-20T09:55:41.313Z,25.37
2022-08-20T09:56:40.305Z,25.46
2022-08-20T09:57:40.283Z,25.02
2022-08-20T09:58:40.277Z,24.52
2022-08-20T09:59:40.268Z,24.04
2022-08-20T10:00:40.237Z,23.76
2022-08-20T10:01:40.248Z,23.82
2022-08-20T10:02:40.228Z,23.87
2022-08-20T10:03:41.865Z,23.94
2022-08-20T10:04:40.187Z,23.83
2022-08-20T10:05:40.190Z,23.47
2022-08-20T10:06:40.158Z,23.40
2022-08-20T10:07:40.149Z,23.31
2022-08-20T10:08:40.153Z,23.32
2022-08-20T10:09:40.153Z,23.45
2022-08-20T10:10:40.129Z,23.62
2022-08-20T10:11:40.118Z,23.55
2022-08-20T10:12:40.080Z,23.47
2022-08-20T10:13:40.090Z,23.15
2022-08-20T10:14:40.060Z,22.99
2022-08-20T10:15:40.364Z,22.92
2022-08-20T10:16:40.044Z,22.97
2022-08-20T10:17:40.027Z,23.04
2022-08-20T10:18:40.000Z,23.19
2022-08-20T10:19:39.993Z,23.67
2022-08-20T10:20:39.989Z,23.76
2022-08-20T10:21:39.968Z,23.90
2022-08-20T10:22:39.958Z,24.14
2022-08-20T10:23:39.959Z,24.60
2022-08-20T10:24:39.915Z,24.54
2022-08-20T10:25:39.959Z,24.77
2022-08-20T10:26:39.899Z,24.64
2022-08-20T10:27:39.884Z,24.59
2022-08-20T10:28:39.885Z,25.07
2022-08-20T10:29:43.032Z,25.20
2022-08-20T10:30:40.881Z,25.61
2022-08-20T10:31:39.877Z,25.75
2022-08-20T10:32:39.808Z,26.17
2022-08-20T10:33:39.806Z,26.72
2022-08-20T10:34:39.802Z,27.09
2022-08-20T10:35:39.793Z,27.21
2022-08-20T10:36:39.793Z,27.31
2022-08-20T10:37:39.764Z,27.61
2022-08-20T10:38:39.734Z,28.36
2022-08-20T10:39:39.781Z,28.80
2022-08-20T10:40:39.724Z,28.87
2022-08-20T10:41:39.700Z,28.60
2022-08-20T10:42:42.634Z,28.35
2022-08-20T10:43:39.700Z,27.79
2022-08-20T10:44:39.653Z,26.87
2022-08-20T10:45:40.375Z,25.71
2022-08-20T10:46:39.626Z,25.12
2022-08-20T10:47:39.624Z,24.76
2022-08-20T10:48:39.618Z,24.50
2022-08-20T10:49:39.595Z,25.07
2022-08-20T10:50:39.590Z,25.62
2022-08-20T10:51:39.582Z,25.83
2022-08-20T10:52:39.656Z,26.35
2022-08-20T10:53:39.667Z,26.87
2022-08-20T10:54:39.527Z,27.10
2022-08-20T10:55:39.521Z,27.16
2022-08-20T10:56:39.513Z,27.48
2022-08-20T10:57:39.488Z,28.28
2022-08-20T10:58:40.060Z,28.72
2022-08-20T10:59:39.475Z,28.50
2022-08-20T11:00:39.451Z,28.28
2022-08-20T11:01:39.533Z,27.84
2022-08-20T11:02:39.423Z,27.94
2022-08-20T11:03:39.411Z,27.51
2022-08-20T11:04:39.529Z,26.87
2022-08-20T11:05:39.403Z,26.96
2022-08-20T11:06:39.373Z,27.16
2022-08-20T11:07:50.031Z,27.39
2022-08-20T11:08:40.359Z,27.80
2022-08-20T11:09:39.335Z,28.47
2022-08-20T11:10:39.340Z,28.35
2022-08-20T11:11:39.328Z,28.06
2022-08-20T11:12:39.296Z,28.09
2022-08-20T11:13:39.299Z,27.84
2022-08-20T11:14:39.267Z,27.95
2022-08-20T11:15:39.288Z,28.03
2022-08-20T11:16:39.297Z,28.07
2022-08-20T11:17:39.236Z,28.46
2022-08-20T11:18:40.983Z,28.70
2022-08-20T11:19:39.222Z,28.75
2022-08-20T11:20:39.189Z,28.65
2022-08-20T11:21:39.290Z,29.08
2022-08-20T11:22:39.175Z,29.15
2022-08-20T11:23:39.171Z,28.25
2022-08-20T11:24:39.142Z,27.32
2022-08-20T11:25:39.143Z,27.23
2022-08-20T11:26:39.112Z,27.39
2022-08-20T11:27:39.146Z,27.59
2022-08-20T11:28:39.096Z,26.96
2022-08-20T11:29:39.072Z,26.28
2022-08-20T11:30:39.067Z,25.72
2022-08-20T11:31:39.065Z,25.93
2022-08-20T11:32:39.028Z,25.87
2022-08-20T11:33:39.039Z,25.53
2022-08-20T11:34:39.005Z,25.22
2022-08-20T11:35:43.443Z,24.98
2022-08-20T11:36:39.990Z,24.98
2022-08-20T11:37:38.980Z,25.64
2022-08-20T11:38:38.946Z,26.80
2022-08-20T11:39:41.836Z,27.91
2022-08-20T11:40:38.933Z,28.80
2022-08-20T11:41:38.909Z,28.72
2022-08-20T11:42:53.248Z,28.11
2022-08-20T11:43:40.013Z,27.28
2022-08-20T11:44:38.869Z,26.86
2022-08-20T11:45:38.873Z,26.15
2022-08-20T11:46:38.840Z,25.64
2022-08-20T11:47:38.832Z,25.10
2022-08-20T11:48:38.825Z,24.68
2022-08-20T11:49:38.832Z,24.29
2022-08-20T11:50:38.813Z,24.22
2022-08-20T11:51:49.122Z,25.13
2022-08-20T11:52:39.763Z,25.87
2022-08-20T11:53:38.744Z,26.55
2022-08-20T11:54:38.756Z,26.92
2022-08-20T11:55:38.909Z,27.61
2022-08-20T11:56:38.713Z,28.17
2022-08-20T11:57:39.709Z,28.66
2022-08-20T11:58:38.686Z,29.38
2022-08-20T11:59:38.666Z,28.77
2022-08-20T12:00:38.676Z,28.90
2022-08-20T12:01:38.638Z,29.33
2022-08-20T12:02:38.660Z,28.62
2022-08-20T12:03:38.623Z,28.04
2022-08-20T12:04:38.609Z,27.24
2022-08-20T12:05:38.614Z,26.73
2022-08-20T12:06:38.580Z,26.21
2022-08-20T12:07:38.561Z,26.67
2022-08-20T12:08:38.573Z,27.51
2022-08-20T12:09:39.903Z,28.21
2022-08-20T12:10:39.644Z,28.69
2022-08-20T12:11:38.522Z,29.20
2022-08-20T12:12:38.516Z,29.33
2022-08-20T12:13:48.214Z,29.16
2022-08-20T12:14:39.495Z,29.68
2022-08-20T12:15:38.468Z,30.15
2022-08-20T12:16:38.485Z,30.67
2022-08-20T12:17:38.448Z,30.07
2022-08-20T12:18:38.427Z,28.48
2022-08-20T12:19:38.406Z,27.76
2022-08-20T12:20:38.418Z,26.99
2022-08-20T12:21:38.387Z,26.35
2022-08-20T12:22:38.500Z,25.86
2022-08-20T12:23:38.371Z,25.42
2022-08-20T12:24:38.349Z,25.22
2022-08-20T12:25:38.329Z,25.13
2022-08-20T12:26:38.341Z,24.95
2022-08-20T12:27:38.313Z,24.80
2022-08-20T12:28:38.306Z,24.87
2022-08-20T12:29:38.296Z,24.90
2022-08-20T12:30:38.270Z,25.09
2022-08-20T12:31:38.251Z,24.95
2022-08-20T12:32:38.266Z,25.49
2022-08-20T12:33:38.232Z,26.31
2022-08-20T12:34:38.235Z,27.35
2022-08-20T12:35:38.217Z,28.19
2022-08-20T12:36:38.194Z,28.72
2022-08-20T12:37:38.188Z,28.07
2022-08-20T12:38:38.275Z,27.35
2022-08-20T12:40:32.000Z,27.19
2022-08-20T12:40:39.160Z,27.98
2022-08-20T12:41:38.141Z,27.96
2022-08-20T12:42:38.116Z,28.62
2022-08-20T12:43:38.097Z,28.68
2022-08-20T12:45:13.843Z,28.51
2022-08-20T12:45:38.077Z,28.54
2022-08-20T12:46:38.082Z,28.75
2022-08-20T12:49:36.615Z,28.84
2022-08-20T12:49:41.310Z,29.01
2022-08-20T12:50:41.304Z,29.13
2022-08-20T12:51:41.281Z,29.72
2022-08-20T12:52:41.264Z,30.45
2022-08-20T12:53:41.276Z,30.89